sensor_id;sensor_type;location;lat;lon;timestamp;pressure;altitude;pressure_sealevel;temperature;humidity
39793;BME280;26080;42.264;24.536;2022-07-04T00:02:11;99545.78;;;19.87;89.62
39793;BME280;26080;42.264;24.536;2022-07-04T00:04:36;99547.03;;;19.71;90.56
39793;BME280;26080;42.264;24.536;2022-07-04T00:07:02;99536.38;;;19.82;89.10
39793;BME280;26080;42.264;24.536;2022-07-04T00:09:27;99533.44;;;19.97;88.43
39793;BME280;26080;42.264;24.536;2022-07-04T00:11:53;99511.88;;;19.79;87.77
39793;BME280;26080;42.264;24.536;2022-07-04T00:14:18;99536.97;;;19.86;86.61
39793;BME280;26080;42.264;24.536;2022-07-04T00:16:44;99531.72;;;19.64;89.55
39793;BME280;26080;42.264;24.536;2022-07-04T00:19:09;99524.22;;;19.69;88.21
39793;BME280;26080;42.264;24.536;2022-07-04T00:21:35;99521.28;;;19.83;87.22
39793;BME280;26080;42.264;24.536;2022-07-04T00:24:00;99485.50;;;19.55;87.04
39793;BME280;26080;42.264;24.536;2022-07-04T00:26:26;99521.94;;;19.64;87.10
39793;BME280;26080;42.264;24.536;2022-07-04T00:28:53;99480.03;;;19.45;87.04
39793;BME280;26080;42.264;24.536;2022-07-04T00:31:18;99515.44;;;19.57;87.67
39793;BME280;26080;42.264;24.536;2022-07-04T00:33:44;99517.84;;;19.49;88.27
39793;BME280;26080;42.264;24.536;2022-07-04T00:36:09;99518.78;;;19.59;87.33
39793;BME280;26080;42.264;24.536;2022-07-04T00:38:34;99511.19;;;19.66;87.00
39793;BME280;26080;42.264;24.536;2022-07-04T00:41:00;99503.59;;;19.50;87.32
39793;BME280;26080;42.264;24.536;2022-07-04T00:43:27;99510.72;;;19.49;87.01
39793;BME280;26080;42.264;24.536;2022-07-04T00:45:52;99512.06;;;19.55;87.08
39793;BME280;26080;42.264;24.536;2022-07-04T00:48:18;99511.44;;;19.51;87.22
39793;BME280;26080;42.264;24.536;2022-07-04T00:50:47;99497.94;;;19.32;88.86
39793;BME280;26080;42.264;24.536;2022-07-04T00:53:14;99502.75;;;19.38;88.29
39793;BME280;26080;42.264;24.536;2022-07-04T00:55:40;99505.53;;;19.48;87.08
39793;BME280;26080;42.264;24.536;2022-07-04T00:58:07;99499.97;;;19.51;86.10
39793;BME280;26080;42.264;24.536;2022-07-04T01:00:32;99498.38;;;19.60;84.79
39793;BME280;26080;42.264;24.536;2022-07-04T01:02:58;99486.44;;;19.65;85.33
39793;BME280;26080;42.264;24.536;2022-07-04T01:05:23;99488.44;;;19.73;84.92
39793;BME280;26080;42.264;24.536;2022-07-04T01:07:49;99488.38;;;19.63;87.50
39793;BME280;26080;42.264;24.536;2022-07-04T01:10:15;99490.31;;;19.39;91.88
39793;BME280;26080;42.264;24.536;2022-07-04T01:12:40;99460.81;;;18.99;91.26
39793;BME280;26080;42.264;24.536;2022-07-04T01:15:07;99488.44;;;19.07;94.73
39793;BME280;26080;42.264;24.536;2022-07-04T01:17:33;99488.66;;;19.04;94.52
39793;BME280;26080;42.264;24.536;2022-07-04T01:19:59;99482.75;;;19.01;94.96
39793;BME280;26080;42.264;24.536;2022-07-04T01:22:24;99471.56;;;19.08;93.92
39793;BME280;26080;42.264;24.536;2022-07-04T01:24:50;99472.97;;;19.35;93.01
39793;BME280;26080;42.264;24.536;2022-07-04T01:27:16;99458.00;;;19.34;92.52
39793;BME280;26080;42.264;24.536;2022-07-04T01:29:42;99430.25;;;19.15;92.69
39793;BME280;26080;42.264;24.536;2022-07-04T01:32:08;99443.75;;;19.35;91.88
39793;BME280;26080;42.264;24.536;2022-07-04T01:34:34;99455.41;;;19.43;91.62
39793;BME280;26080;42.264;24.536;2022-07-04T01:37:00;99442.09;;;19.22;92.16
39793;BME280;26080;42.264;24.536;2022-07-04T01:39:29;99464.03;;;19.24;93.64
39793;BME280;26080;42.264;24.536;2022-07-04T01:41:55;99458.00;;;19.22;93.64
39793;BME280;26080;42.264;24.536;2022-07-04T01:44:21;99452.78;;;19.32;92.07
39793;BME280;26080;42.264;24.536;2022-07-04T01:46:46;99460.44;;;19.03;97.13
39793;BME280;26080;42.264;24.536;2022-07-04T01:49:12;99467.72;;;18.79;99.85
39793;BME280;26080;42.264;24.536;2022-07-04T01:51:45;99457.75;;;18.47;100.00
39793;BME280;26080;42.264;24.536;2022-07-04T01:54:11;99467.47;;;18.35;100.00
39793;BME280;26080;42.264;24.536;2022-07-04T01:56:38;99472.88;;;18.12;100.00
39793;BME280;26080;42.264;24.536;2022-07-04T01:59:03;99475.91;;;17.94;100.00
39793;BME280;26080;42.264;24.536;2022-07-04T02:01:29;99472.09;;;17.98;100.00
39793;BME280;26080;42.264;24.536;2022-07-04T02:03:55;99451.31;;;17.81;100.00
39793;BME280;26080;42.264;24.536;2022-07-04T02:06:21;99475.25;;;18.03;100.00
39793;BME280;26080;42.264;24.536;2022-07-04T02:08:47;99465.38;;;18.05;100.00
39793;BME280;26080;42.264;24.536;2022-07-04T02:11:46;99468.25;;;18.02;100.00
39793;BME280;26080;42.264;24.536;2022-07-04T02:14:31;99476.75;;;17.84;100.00
39793;BME280;26080;42.264;24.536;2022-07-04T02:16:57;99473.50;;;17.91;100.00
39793;BME280;26080;42.264;24.536;2022-07-04T02:19:23;99476.84;;;17.82;100.00
39793;BME280;26080;42.264;24.536;2022-07-04T02:21:48;99479.75;;;17.66;100.00
39793;BME280;26080;42.264;24.536;2022-07-04T02:24:14;99490.38;;;17.54;100.00
39793;BME280;26080;42.264;24.536;2022-07-04T02:26:39;99486.31;;;17.73;100.00
39793;BME280;26080;42.264;24.536;2022-07-04T02:29:05;99480.38;;;17.46;100.00
39793;BME280;26080;42.264;24.536;2022-07-04T02:31:30;99488.81;;;17.51;100.00
39793;BME280;26080;42.264;24.536;2022-07-04T02:33:56;99486.28;;;17.50;100.00
39793;BME280;26080;42.264;24.536;2022-07-04T02:36:21;99486.72;;;17.43;100.00
39793;BME280;26080;42.264;24.536;2022-07-04T02:38:46;99488.66;;;17.41;100.00
39793;BME280;26080;42.264;24.536;2022-07-04T02:41:12;99487.22;;;17.48;100.00
39793;BME280;26080;42.264;24.536;2022-07-04T02:43:37;99491.31;;;17.41;100.00
39793;BME280;26080;42.264;24.536;2022-07-04T02:46:03;99487.69;;;17.42;100.00
39793;BME280;26080;42.264;24.536;2022-07-04T02:48:28;99490.03;;;17.34;100.00
39793;BME280;26080;42.264;24.536;2022-07-04T02:50:54;99492.59;;;17.23;100.00
39793;BME280;26080;42.264;24.536;2022-07-04T02:53:19;99494.44;;;17.10;100.00
39793;BME280;26080;42.264;24.536;2022-07-04T02:55:44;99494.66;;;17.07;100.00
39793;BME280;26080;42.264;24.536;2022-07-04T02:58:10;99498.16;;;16.95;100.00
39793;BME280;26080;42.264;24.536;2022-07-04T03:00:35;99493.06;;;17.17;100.00
39793;BME280;26080;42.264;24.536;2022-07-04T03:03:01;99489.47;;;17.05;100.00
39793;BME280;26080;42.264;24.536;2022-07-04T03:05:27;99494.34;;;16.99;100.00
39793;BME280;26080;42.264;24.536;2022-07-04T03:07:57;99494.78;;;16.93;100.00
39793;BME280;26080;42.264;24.536;2022-07-04T03:10:22;99502.84;;;16.91;100.00
39793;BME280;26080;42.264;24.536;2022-07-04T03:12:48;99503.34;;;16.96;100.00
39793;BME280;26080;42.264;24.536;2022-07-04T03:15:13;99505.75;;;16.99;100.00
39793;BME280;26080;42.264;24.536;2022-07-04T03:17:39;99504.91;;;16.99;100.00
39793;BME280;26080;42.264;24.536;2022-07-04T03:20:05;99489.94;;;16.86;100.00
39793;BME280;26080;42.264;24.536;2022-07-04T03:22:31;99513.19;;;17.07;100.00
39793;BME280;26080;42.264;24.536;2022-07-04T03:24:56;99483.44;;;17.03;100.00
39793;BME280;26080;42.264;24.536;2022-07-04T03:27:22;99504.16;;;17.22;100.00
39793;BME280;26080;42.264;24.536;2022-07-04T03:29:47;99477.28;;;17.15;100.00
39793;BME280;26080;42.264;24.536;2022-07-04T03:32:12;99509.00;;;17.41;100.00
39793;BME280;26080;42.264;24.536;2022-07-04T03:34:38;99506.78;;;17.59;100.00
39793;BME280;26080;42.264;24.536;2022-07-04T03:37:03;99511.28;;;17.82;100.00
39793;BME280;26080;42.264;24.536;2022-07-04T03:39:29;99508.72;;;18.04;100.00
39793;BME280;26080;42.264;24.536;2022-07-04T03:41:54;99503.47;;;18.16;100.00
39793;BME280;26080;42.264;24.536;2022-07-04T03:44:20;99499.94;;;18.39;100.00
39793;BME280;26080;42.264;24.536;2022-07-04T03:46:45;99503.47;;;18.51;100.00
39793;BME280;26080;42.264;24.536;2022-07-04T03:49:11;99511.34;;;18.86;100.00
39793;BME280;26080;42.264;24.536;2022-07-04T03:51:36;99507.44;;;19.46;100.00
39793;BME280;26080;42.264;24.536;2022-07-04T03:54:02;99488.72;;;20.23;100.00
39793;BME280;26080;42.264;24.536;2022-07-04T03:56:27;99509.75;;;20.88;100.00
39793;BME280;26080;42.264;24.536;2022-07-04T03:58:53;99510.72;;;20.87;100.00
39793;BME280;26080;42.264;24.536;2022-07-04T04:01:18;99508.34;;;21.74;98.08
39793;BME280;26080;42.264;24.536;2022-07-04T04:03:45;99490.38;;;22.63;94.80
39793;BME280;26080;42.264;24.536;2022-07-04T04:06:30;99513.03;;;23.33;91.15
39793;BME280;26080;42.264;24.536;2022-07-04T04:08:56;99512.59;;;23.83;88.14
39793;BME280;26080;42.264;24.536;2022-07-04T04:11:21;99491.25;;;24.09;85.19
39793;BME280;26080;42.264;24.536;2022-07-04T04:13:47;99497.91;;;24.67;81.66
39793;BME280;26080;42.264;24.536;2022-07-04T04:16:12;99505.34;;;24.73;81.94
39793;BME280;26080;42.264;24.536;2022-07-04T04:18:38;99505.88;;;25.02;80.17
39793;BME280;26080;42.264;24.536;2022-07-04T04:21:04;99488.63;;;24.79;79.58
39793;BME280;26080;42.264;24.536;2022-07-04T04:23:30;99513.38;;;25.33;77.36
39793;BME280;26080;42.264;24.536;2022-07-04T04:25:56;99508.75;;;25.59;75.80
39793;BME280;26080;42.264;24.536;2022-07-04T04:28:22;99512.41;;;25.92;74.29
39793;BME280;26080;42.264;24.536;2022-07-04T04:30:48;99509.59;;;25.60;75.61
39793;BME280;26080;42.264;24.536;2022-07-04T04:33:13;99513.06;;;25.94;75.62
39793;BME280;26080;42.264;24.536;2022-07-04T04:35:39;99509.94;;;26.48;73.54
39793;BME280;26080;42.264;24.536;2022-07-04T04:38:04;99511.09;;;26.37;72.19
39793;BME280;26080;42.264;24.536;2022-07-04T04:40:30;99506.88;;;26.75;71.35
39793;BME280;26080;42.264;24.536;2022-07-04T04:42:56;99506.50;;;26.86;69.16
39793;BME280;26080;42.264;24.536;2022-07-04T04:45:21;99520.44;;;26.90;68.85
39793;BME280;26080;42.264;24.536;2022-07-04T04:47:47;99515.50;;;27.18;68.12
39793;BME280;26080;42.264;24.536;2022-07-04T04:50:12;99501.28;;;27.40;67.37
39793;BME280;26080;42.264;24.536;2022-07-04T04:52:43;99503.47;;;27.76;65.28
39793;BME280;26080;42.264;24.536;2022-07-04T04:55:08;99503.09;;;28.33;63.09
39793;BME280;26080;42.264;24.536;2022-07-04T04:57:34;99484.47;;;28.76;61.33
39793;BME280;26080;42.264;24.536;2022-07-04T05:00:00;99498.66;;;29.22;59.25
39793;BME280;26080;42.264;24.536;2022-07-04T05:02:26;99499.09;;;29.55;55.77
39793;BME280;26080;42.264;24.536;2022-07-04T05:04:52;99492.31;;;29.81;54.55
39793;BME280;26080;42.264;24.536;2022-07-04T05:07:18;99495.13;;;30.08;54.02
39793;BME280;26080;42.264;24.536;2022-07-04T05:09:43;99499.00;;;30.27;53.24
39793;BME280;26080;42.264;24.536;2022-07-04T05:12:08;99494.75;;;30.40;52.03
39793;BME280;26080;42.264;24.536;2022-07-04T05:14:34;99506.41;;;30.40;49.93
39793;BME280;26080;42.264;24.536;2022-07-04T05:16:59;99504.09;;;30.86;50.15
39793;BME280;26080;42.264;24.536;2022-07-04T05:19:25;99499.50;;;31.21;49.95
39793;BME280;26080;42.264;24.536;2022-07-04T05:21:50;99498.84;;;31.13;49.53
39793;BME280;26080;42.264;24.536;2022-07-04T05:24:16;99494.25;;;31.13;47.50
39793;BME280;26080;42.264;24.536;2022-07-04T05:26:42;99491.75;;;30.56;48.03
39793;BME280;26080;42.264;24.536;2022-07-04T05:29:08;99496.19;;;29.93;47.72
39793;BME280;26080;42.264;24.536;2022-07-04T05:31:33;99492.41;;;29.51;51.28
39793;BME280;26080;42.264;24.536;2022-07-04T05:33:59;99484.97;;;28.79;50.26
39793;BME280;26080;42.264;24.536;2022-07-04T05:36:25;99492.66;;;28.07;53.83
39793;BME280;26080;42.264;24.536;2022-07-04T05:38:51;99504.34;;;27.68;56.45
39793;BME280;26080;42.264;24.536;2022-07-04T05:41:17;99501.44;;;27.08;59.91
39793;BME280;26080;42.264;24.536;2022-07-04T05:43:42;99494.41;;;26.82;58.40
39793;BME280;26080;42.264;24.536;2022-07-04T05:46:08;99499.00;;;26.66;60.60
39793;BME280;26080;42.264;24.536;2022-07-04T05:48:34;99507.88;;;26.74;61.87
39793;BME280;26080;42.264;24.536;2022-07-04T05:50:59;99502.28;;;26.92;60.78
39793;BME280;26080;42.264;24.536;2022-07-04T05:53:25;99504.03;;;26.61;59.81
39793;BME280;26080;42.264;24.536;2022-07-04T05:55:51;99496.47;;;26.23;60.41
39793;BME280;26080;42.264;24.536;2022-07-04T05:58:16;99501.16;;;26.29;61.74
39793;BME280;26080;42.264;24.536;2022-07-04T06:00:41;99498.00;;;26.18;64.13
39793;BME280;26080;42.264;24.536;2022-07-04T06:03:07;99501.00;;;26.15;66.57
39793;BME280;26080;42.264;24.536;2022-07-04T06:05:33;99496.47;;;26.15;64.65
39793;BME280;26080;42.264;24.536;2022-07-04T06:07:58;99474.97;;;25.75;67.24
39793;BME280;26080;42.264;24.536;2022-07-04T06:10:24;99481.56;;;26.05;66.91
39793;BME280;26080;42.264;24.536;2022-07-04T06:12:49;99474.00;;;26.00;68.68
39793;BME280;26080;42.264;24.536;2022-07-04T06:15:15;99496.97;;;26.27;65.77
39793;BME280;26080;42.264;24.536;2022-07-04T06:17:41;99476.34;;;26.11;66.89
39793;BME280;26080;42.264;24.536;2022-07-04T06:20:07;99477.88;;;26.22;63.32
39793;BME280;26080;42.264;24.536;2022-07-04T06:22:43;99500.84;;;26.24;65.35
39793;BME280;26080;42.264;24.536;2022-07-04T06:25:16;99493.81;;;26.32;66.41
39793;BME280;26080;42.264;24.536;2022-07-04T06:27:43;99499.00;;;26.33;63.01
39793;BME280;26080;42.264;24.536;2022-07-04T06:30:09;99498.84;;;26.35;62.43
39793;BME280;26080;42.264;24.536;2022-07-04T06:32:49;99493.47;;;26.10;57.22
39793;BME280;26080;42.264;24.536;2022-07-04T06:35:18;99487.91;;;26.04;58.50
39793;BME280;26080;42.264;24.536;2022-07-04T06:38:03;99483.06;;;25.91;58.47
39793;BME280;26080;42.264;24.536;2022-07-04T06:40:28;99479.19;;;25.93;58.74
39793;BME280;26080;42.264;24.536;2022-07-04T06:42:54;99483.03;;;25.99;61.77
39793;BME280;26080;42.264;24.536;2022-07-04T06:45:19;99480.38;;;26.23;61.49
39793;BME280;26080;42.264;24.536;2022-07-04T06:47:45;99481.06;;;26.34;59.11
39793;BME280;26080;42.264;24.536;2022-07-04T06:50:12;99480.03;;;26.43;54.21
39793;BME280;26080;42.264;24.536;2022-07-04T06:52:38;99468.13;;;26.62;53.90
39793;BME280;26080;42.264;24.536;2022-07-04T06:55:05;99469.63;;;26.56;55.38
39793;BME280;26080;42.264;24.536;2022-07-04T06:57:30;99468.28;;;26.60;54.35
39793;BME280;26080;42.264;24.536;2022-07-04T06:59:56;99461.38;;;26.57;50.67
39793;BME280;26080;42.264;24.536;2022-07-04T07:02:21;99462.22;;;26.58;53.58
39793;BME280;26080;42.264;24.536;2022-07-04T07:04:47;99456.31;;;26.71;52.27
39793;BME280;26080;42.264;24.536;2022-07-04T07:07:12;99449.22;;;26.86;49.97
39793;BME280;26080;42.264;24.536;2022-07-04T07:09:38;99429.94;;;26.82;50.87
39793;BME280;26080;42.264;24.536;2022-07-04T07:12:03;99453.41;;;27.05;49.31
39793;BME280;26080;42.264;24.536;2022-07-04T07:14:29;99451.72;;;27.04;54.58
39793;BME280;26080;42.264;24.536;2022-07-04T07:16:55;99451.00;;;27.18;48.67
39793;BME280;26080;42.264;24.536;2022-07-04T07:19:21;99446.56;;;27.25;49.92
39793;BME280;26080;42.264;24.536;2022-07-04T07:21:46;99449.88;;;27.35;49.28
39793;BME280;26080;42.264;24.536;2022-07-04T07:24:11;99448.47;;;27.48;50.68
39793;BME280;26080;42.264;24.536;2022-07-04T07:26:37;99440.78;;;27.44;51.23
39793;BME280;26080;42.264;24.536;2022-07-04T07:29:02;99439.75;;;27.45;52.09
39793;BME280;26080;42.264;24.536;2022-07-04T07:31:28;99434.59;;;27.36;54.19
39793;BME280;26080;42.264;24.536;2022-07-04T07:33:54;99420.69;;;27.24;57.81
39793;BME280;26080;42.264;24.536;2022-07-04T07:36:19;99432.88;;;27.43;59.37
39793;BME280;26080;42.264;24.536;2022-07-04T07:38:44;99416.66;;;27.28;57.22
39793;BME280;26080;42.264;24.536;2022-07-04T07:41:11;99425.06;;;27.56;55.04
39793;BME280;26080;42.264;24.536;2022-07-04T07:43:37;99426.50;;;27.67;58.75
39793;BME280;26080;42.264;24.536;2022-07-04T07:46:06;99422.94;;;27.74;58.65
39793;BME280;26080;42.264;24.536;2022-07-04T07:48:32;99425.44;;;27.76;57.24
39793;BME280;26080;42.264;24.536;2022-07-04T07:50:58;99396.25;;;27.65;56.63
39793;BME280;26080;42.264;24.536;2022-07-04T07:53:23;99415.16;;;27.80;55.40
39793;BME280;26080;42.264;24.536;2022-07-04T07:55:49;99427.53;;;27.89;59.89
39793;BME280;26080;42.264;24.536;2022-07-04T07:58:14;99411.66;;;27.94;56.72
39793;BME280;26080;42.264;24.536;2022-07-04T08:00:42;99404.38;;;28.02;55.00
39793;BME280;26080;42.264;24.536;2022-07-04T08:03:14;99413.50;;;28.16;54.06
39793;BME280;26080;42.264;24.536;2022-07-04T08:05:58;99412.03;;;28.14;51.12
39793;BME280;26080;42.264;24.536;2022-07-04T08:08:23;99403.38;;;28.18;53.21
39793;BME280;26080;42.264;24.536;2022-07-04T08:10:49;99394.41;;;28.26;54.49
39793;BME280;26080;42.264;24.536;2022-07-04T08:13:15;99396.38;;;28.32;53.78
39793;BME280;26080;42.264;24.536;2022-07-04T08:15:41;99399.28;;;28.45;52.22
39793;BME280;26080;42.264;24.536;2022-07-04T08:18:06;99392.78;;;28.40;47.02
39793;BME280;26080;42.264;24.536;2022-07-04T08:20:31;99389.78;;;28.35;46.94
39793;BME280;26080;42.264;24.536;2022-07-04T08:22:57;99399.91;;;28.47;51.96
39793;BME280;26080;42.264;24.536;2022-07-04T08:25:23;99396.69;;;28.67;50.07
39793;BME280;26080;42.264;24.536;2022-07-04T08:27:48;99401.78;;;28.76;46.80
39793;BME280;26080;42.264;24.536;2022-07-04T08:30:14;99393.50;;;28.78;51.86
39793;BME280;26080;42.264;24.536;2022-07-04T08:32:39;99396.03;;;28.94;46.47
39793;BME280;26080;42.264;24.536;2022-07-04T08:35:05;99376.78;;;28.82;46.84
39793;BME280;26080;42.264;24.536;2022-07-04T08:37:31;99401.69;;;28.99;47.73
39793;BME280;26080;42.264;24.536;2022-07-04T08:39:56;99395.66;;;28.97;43.66
39793;BME280;26080;42.264;24.536;2022-07-04T08:42:22;99393.03;;;29.04;44.89
39793;BME280;26080;42.264;24.536;2022-07-04T08:44:51;99393.50;;;29.07;46.62
39793;BME280;26080;42.264;24.536;2022-07-04T08:47:19;99396.56;;;29.04;45.91
39793;BME280;26080;42.264;24.536;2022-07-04T08:50:06;99400.56;;;29.08;45.96
39793;BME280;26080;42.264;24.536;2022-07-04T08:55:02;99390.28;;;29.18;46.23
39793;BME280;26080;42.264;24.536;2022-07-04T08:57:47;99393.66;;;29.20;47.45
39793;BME280;26080;42.264;24.536;2022-07-04T09:00:32;99388.63;;;29.17;44.52
39793;BME280;26080;42.264;24.536;2022-07-04T09:03:00;99391.47;;;29.31;44.35
39793;BME280;26080;42.264;24.536;2022-07-04T09:05:27;99379.47;;;29.48;45.30
39793;BME280;26080;42.264;24.536;2022-07-04T09:07:53;99380.81;;;29.59;47.79
39793;BME280;26080;42.264;24.536;2022-07-04T09:10:19;99380.56;;;29.75;47.58
39793;BME280;26080;42.264;24.536;2022-07-04T09:12:45;99378.31;;;29.78;46.42
39793;BME280;26080;42.264;24.536;2022-07-04T09:15:11;99380.28;;;29.91;49.49
39793;BME280;26080;42.264;24.536;2022-07-04T09:17:36;99380.59;;;30.03;44.89
39793;BME280;26080;42.264;24.536;2022-07-04T09:20:17;99370.16;;;30.21;40.77
39793;BME280;26080;42.264;24.536;2022-07-04T09:22:43;99373.16;;;30.33;40.40
39793;BME280;26080;42.264;24.536;2022-07-04T09:25:09;99368.22;;;30.43;41.94
39793;BME280;26080;42.264;24.536;2022-07-04T09:27:39;99374.91;;;30.54;39.88
39793;BME280;26080;42.264;24.536;2022-07-04T09:30:06;99360.84;;;30.58;39.07
39793;BME280;26080;42.264;24.536;2022-07-04T09:32:42;99375.47;;;30.71;39.98
39793;BME280;26080;42.264;24.536;2022-07-04T09:37:43;99364.22;;;30.67;43.89
39793;BME280;26080;42.264;24.536;2022-07-04T09:40:37;99362.56;;;30.66;44.12
39793;BME280;26080;42.264;24.536;2022-07-04T09:43:23;99368.84;;;30.73;43.98
39793;BME280;26080;42.264;24.536;2022-07-04T09:45:56;99362.13;;;30.69;43.20
39793;BME280;26080;42.264;24.536;2022-07-04T09:48:22;99363.19;;;30.68;42.82
39793;BME280;26080;42.264;24.536;2022-07-04T09:50:48;99359.50;;;30.82;42.40
39793;BME280;26080;42.264;24.536;2022-07-04T09:53:14;99363.06;;;30.89;42.44
39793;BME280;26080;42.264;24.536;2022-07-04T09:55:40;99364.38;;;31.07;42.86
39793;BME280;26080;42.264;24.536;2022-07-04T09:58:08;99369.59;;;31.08;42.92
39793;BME280;26080;42.264;24.536;2022-07-04T10:03:19;99359.84;;;31.14;40.68
39793;BME280;26080;42.264;24.536;2022-07-04T10:05:47;99364.84;;;31.17;43.01
39793;BME280;26080;42.264;24.536;2022-07-04T10:08:13;99363.16;;;31.16;41.83
39793;BME280;26080;42.264;24.536;2022-07-04T10:10:39;99358.00;;;31.21;41.45
39793;BME280;26080;42.264;24.536;2022-07-04T10:13:07;99349.28;;;31.26;39.75
39793;BME280;26080;42.264;24.536;2022-07-04T10:15:34;99336.56;;;31.19;40.32
39793;BME280;26080;42.264;24.536;2022-07-04T10:18:02;99351.16;;;31.38;43.07
39793;BME280;26080;42.264;24.536;2022-07-04T10:20:28;99353.50;;;31.41;42.24
39793;BME280;26080;42.264;24.536;2022-07-04T10:22:54;99351.19;;;31.45;41.53
39793;BME280;26080;42.264;24.536;2022-07-04T10:25:19;99345.56;;;31.46;40.90
39793;BME280;26080;42.264;24.536;2022-07-04T10:27:45;99343.28;;;31.50;39.35
39793;BME280;26080;42.264;24.536;2022-07-04T10:30:14;99336.66;;;31.52;38.82
39793;BME280;26080;42.264;24.536;2022-07-04T10:32:43;99351.41;;;31.43;39.09
39793;BME280;26080;42.264;24.536;2022-07-04T10:35:13;99338.69;;;31.37;37.86
39793;BME280;26080;42.264;24.536;2022-07-04T10:37:58;99335.16;;;31.43;38.39
39793;BME280;26080;42.264;24.536;2022-07-04T10:48:56;99323.75;;;31.54;40.04
39793;BME280;26080;42.264;24.536;2022-07-04T10:51:47;99313.72;;;31.62;39.08
39793;BME280;26080;42.264;24.536;2022-07-04T10:54:16;99314.97;;;31.66;34.59
39793;BME280;26080;42.264;24.536;2022-07-04T10:56:53;99326.03;;;31.71;37.53
39793;BME280;26080;42.264;24.536;2022-07-04T11:18:10;99302.47;;;31.25;35.58
39793;BME280;26080;42.264;24.536;2022-07-04T11:20:42;99303.50;;;31.37;39.26
39793;BME280;26080;42.264;24.536;2022-07-04T11:25:34;99291.66;;;31.65;39.27
39793;BME280;26080;42.264;24.536;2022-07-04T11:30:55;99249.59;;;31.62;38.59
39793;BME280;26080;42.264;24.536;2022-07-04T11:33:24;99280.84;;;31.98;39.33
39793;BME280;26080;42.264;24.536;2022-07-04T11:38:54;99276.44;;;32.10;39.94
39793;BME280;26080;42.264;24.536;2022-07-04T11:41:38;99270.41;;;32.08;38.54
39793;BME280;26080;42.264;24.536;2022-07-04T11:44:23;99271.44;;;32.00;37.21
39793;BME280;26080;42.264;24.536;2022-07-04T11:49:49;99274.16;;;32.00;41.81
39793;BME280;26080;42.264;24.536;2022-07-04T11:52:18;99264.56;;;32.04;39.25
39793;BME280;26080;42.264;24.536;2022-07-04T11:54:45;99279.13;;;32.17;39.88
39793;BME280;26080;42.264;24.536;2022-07-04T11:57:28;99273.69;;;32.17;42.16
39793;BME280;26080;42.264;24.536;2022-07-04T12:00:12;99265.78;;;32.22;36.79
39793;BME280;26080;42.264;24.536;2022-07-04T12:02:39;99246.19;;;32.20;38.16
39793;BME280;26080;42.264;24.536;2022-07-04T12:05:07;99259.91;;;32.38;38.50
39793;BME280;26080;42.264;24.536;2022-07-04T12:07:35;99230.13;;;32.25;38.56
39793;BME280;26080;42.264;24.536;2022-07-04T12:10:12;99263.19;;;32.53;39.41
39793;BME280;26080;42.264;24.536;2022-07-04T12:15:25;99253.13;;;32.60;40.63
39793;BME280;26080;42.264;24.536;2022-07-04T12:17:52;99250.00;;;32.63;38.81
39793;BME280;26080;42.264;24.536;2022-07-04T12:20:20;99243.47;;;32.78;39.09
39793;BME280;26080;42.264;24.536;2022-07-04T12:22:53;99246.59;;;32.81;40.87
39793;BME280;26080;42.264;24.536;2022-07-04T12:25:33;99249.91;;;32.90;38.08
39793;BME280;26080;42.264;24.536;2022-07-04T12:28:10;99244.66;;;32.95;37.63
39793;BME280;26080;42.264;24.536;2022-07-04T12:30:38;99234.66;;;32.89;35.52
39793;BME280;26080;42.264;24.536;2022-07-04T12:33:08;99236.34;;;32.90;35.09
39793;BME280;26080;42.264;24.536;2022-07-04T12:40:48;99231.34;;;32.80;38.73
39793;BME280;26080;42.264;24.536;2022-07-04T12:43:15;99230.16;;;32.69;38.33
39793;BME280;26080;42.264;24.536;2022-07-04T12:45:45;99228.94;;;32.65;41.47
39793;BME280;26080;42.264;24.536;2022-07-04T12:48:15;99233.69;;;32.70;44.23
39793;BME280;26080;42.264;24.536;2022-07-04T12:50:41;99228.03;;;32.78;41.82
39793;BME280;26080;42.264;24.536;2022-07-04T12:53:07;99217.59;;;32.82;38.47
39793;BME280;26080;42.264;24.536;2022-07-04T12:55:32;99217.16;;;32.85;40.20
39793;BME280;26080;42.264;24.536;2022-07-04T12:57:57;99205.72;;;32.83;40.03
39793;BME280;26080;42.264;24.536;2022-07-04T13:00:23;99219.41;;;32.94;40.30
39793;BME280;26080;42.264;24.536;2022-07-04T13:02:49;99206.31;;;32.85;42.67
39793;BME280;26080;42.264;24.536;2022-07-04T13:05:15;99214.00;;;32.88;39.14
39793;BME280;26080;42.264;24.536;2022-07-04T13:07:41;99219.03;;;32.84;38.76
39793;BME280;26080;42.264;24.536;2022-07-04T13:10:07;99205.06;;;32.81;41.69
39793;BME280;26080;42.264;24.536;2022-07-04T13:12:32;99203.00;;;32.83;40.88
39793;BME280;26080;42.264;24.536;2022-07-04T13:14:58;99202.34;;;32.81;38.72
39793;BME280;26080;42.264;24.536;2022-07-04T13:17:25;99206.31;;;32.85;39.56
39793;BME280;26080;42.264;24.536;2022-07-04T13:19:51;99209.47;;;32.82;38.65
39793;BME280;26080;42.264;24.536;2022-07-04T13:22:22;99197.13;;;32.86;39.84
39793;BME280;26080;42.264;24.536;2022-07-04T13:24:48;99201.09;;;32.90;39.73
39793;BME280;26080;42.264;24.536;2022-07-04T13:27:14;99204.00;;;32.88;42.05
39793;BME280;26080;42.264;24.536;2022-07-04T13:29:40;99198.78;;;32.87;39.54
39793;BME280;26080;42.264;24.536;2022-07-04T13:32:06;99201.25;;;32.95;39.19
39793;BME280;26080;42.264;24.536;2022-07-04T13:34:31;99162.97;;;32.71;41.52
39793;BME280;26080;42.264;24.536;2022-07-04T13:36:57;99191.22;;;32.95;39.87
39793;BME280;26080;42.264;24.536;2022-07-04T13:39:23;99190.34;;;33.02;41.82
39793;BME280;26080;42.264;24.536;2022-07-04T13:41:49;99183.69;;;32.97;41.04
39793;BME280;26080;42.264;24.536;2022-07-04T13:44:15;99186.78;;;33.01;39.03